Terminal Aerodrome Forecast
Issued by NWS

Home | Current Version | Previous Version | Text Only | Print | Product List | Glossary On
Versions: 1 2 3 4 5 6 7 8 9 10 11 12 13 14 15
469
FTUS44 KLIX 301730
TAFMCB
TAF
KMCB 301730Z 3018/3118 00000KT P6SM SCT050
     FM310000 20005KT P6SM BKN250
     FM310600 00000KT P6SM BKN250
     FM311100 00000KT P6SM BKN015
     FM311400 00000KT P6SM SCT250=

USA.gov is the U.S. government's official web portal to all federal, state and local government web resources and services.